sensor_id;sensor_type;location;lat;lon;timestamp;pressure;altitude;pressure_sealevel;temperature;humidity
76637;BME280;65532;52.124;5.480;2023-05-24T00:00:52;102463.03;;;6.39;89.44
76637;BME280;65532;52.124;5.480;2023-05-24T00:03:18;102465.22;;;6.36;89.35
76637;BME280;65532;52.124;5.480;2023-05-24T00:05:47;102462.03;;;6.32;89.29
76637;BME280;65532;52.124;5.480;2023-05-24T00:08:13;102456.09;;;6.28;89.21
76637;BME280;65532;52.124;5.480;2023-05-24T00:10:41;102466.03;;;6.28;88.98
76637;BME280;65532;52.124;5.480;2023-05-24T00:13:08;102460.13;;;6.24;88.83
76637;BME280;65532;52.124;5.480;2023-05-24T00:15:35;102458.44;;;6.23;88.76
76637;BME280;65532;52.124;5.480;2023-05-24T00:18:01;102454.91;;;6.23;88.30
76637;BME280;65532;52.124;5.480;2023-05-24T00:20:28;102449.69;;;6.21;88.40
76637;BME280;65532;52.124;5.480;2023-05-24T00:22:54;102457.09;;;6.19;88.40
76637;BME280;65532;52.124;5.480;2023-05-24T00:25:21;102449.38;;;6.16;87.50
76637;BME280;65532;52.124;5.480;2023-05-24T00:27:48;102448.66;;;6.14;87.25
76637;BME280;65532;52.124;5.480;2023-05-24T00:30:14;102440.06;;;6.11;87.45
76637;BME280;65532;52.124;5.480;2023-05-24T00:32:41;102450.47;;;6.06;87.47
76637;BME280;65532;52.124;5.480;2023-05-24T00:35:08;102439.50;;;5.99;87.42
76637;BME280;65532;52.124;5.480;2023-05-24T00:37:34;102440.69;;;5.96;87.05
76637;BME280;65532;52.124;5.480;2023-05-24T00:40:02;102432.78;;;5.95;86.87
76637;BME280;65532;52.124;5.480;2023-05-24T00:42:30;102431.09;;;5.94;86.80
76637;BME280;65532;52.124;5.480;2023-05-24T00:44:56;102431.28;;;5.92;86.40
76637;BME280;65532;52.124;5.480;2023-05-24T00:47:23;102431.44;;;5.91;86.54
76637;BME280;65532;52.124;5.480;2023-05-24T00:49:49;102431.09;;;5.94;86.25
76637;BME280;65532;52.124;5.480;2023-05-24T00:52:16;102426.56;;;5.94;85.98
76637;BME280;65532;52.124;5.480;2023-05-24T00:54:43;102420.69;;;5.91;85.72
76637;BME280;65532;52.124;5.480;2023-05-24T00:57:10;102426.34;;;5.88;85.27
76637;BME280;65532;52.124;5.480;2023-05-24T00:59:39;102423.16;;;5.84;85.12
76637;BME280;65532;52.124;5.480;2023-05-24T01:02:06;102422.28;;;5.84;85.15
76637;BME280;65532;52.124;5.480;2023-05-24T01:04:32;102420.59;;;5.83;85.13
76637;BME280;65532;52.124;5.480;2023-05-24T01:07:14;102426.97;;;5.82;84.96
76637;BME280;65532;52.124;5.480;2023-05-24T01:13:11;102427.31;;;5.79;84.18
76637;BME280;65532;52.124;5.480;2023-05-24T01:16:00;102441.75;;;5.78;83.59
76637;BME280;65532;52.124;5.480;2023-05-24T01:18:35;102441.75;;;5.78;83.46
76637;BME280;65532;52.124;5.480;2023-05-24T01:21:15;102433.34;;;5.81;83.16
76637;BME280;65532;52.124;5.480;2023-05-24T01:24:11;102434.34;;;5.80;83.36
76637;BME280;65532;52.124;5.480;2023-05-24T01:29:30;102435.34;;;5.70;84.24
76637;BME280;65532;52.124;5.480;2023-05-24T01:31:57;102430.81;;;5.71;83.98
76637;BME280;65532;52.124;5.480;2023-05-24T01:34:26;102436.19;;;5.71;83.95
76637;BME280;65532;52.124;5.480;2023-05-24T01:36:53;102433.50;;;5.71;84.35
76637;BME280;65532;52.124;5.480;2023-05-24T01:39:20;102433.94;;;5.66;84.03
76637;BME280;65532;52.124;5.480;2023-05-24T01:45:05;102437.13;;;5.62;83.53
76637;BME280;65532;52.124;5.480;2023-05-24T01:50:30;102429.38;;;5.59;84.48
76637;BME280;65532;52.124;5.480;2023-05-24T01:52:59;102433.84;;;5.50;85.44
76637;BME280;65532;52.124;5.480;2023-05-24T01:55:30;102434.81;;;5.41;85.16
76637;BME280;65532;52.124;5.480;2023-05-24T01:58:01;102435.16;;;5.38;84.19
76637;BME280;65532;52.124;5.480;2023-05-24T02:00:30;102432.28;;;5.39;83.57
76637;BME280;65532;52.124;5.480;2023-05-24T02:02:58;102436.81;;;5.39;82.55
76637;BME280;65532;52.124;5.480;2023-05-24T02:05:25;102429.81;;;5.46;81.81
76637;BME280;65532;52.124;5.480;2023-05-24T02:07:51;102433.19;;;5.48;81.53
76637;BME280;65532;52.124;5.480;2023-05-24T02:10:18;102424.59;;;5.45;82.15
76637;BME280;65532;52.124;5.480;2023-05-24T02:12:44;102422.41;;;5.40;83.20
76637;BME280;65532;52.124;5.480;2023-05-24T02:15:11;102420.03;;;5.37;82.38
76637;BME280;65532;52.124;5.480;2023-05-24T02:17:41;102420.47;;;5.32;82.48
76637;BME280;65532;52.124;5.480;2023-05-24T02:20:08;102420.81;;;5.29;82.22
76637;BME280;65532;52.124;5.480;2023-05-24T02:22:37;102419.28;;;5.27;81.84
76637;BME280;65532;52.124;5.480;2023-05-24T02:25:03;102408.69;;;5.25;81.95
76637;BME280;65532;52.124;5.480;2023-05-24T02:27:30;102417.75;;;5.24;81.67
76637;BME280;65532;52.124;5.480;2023-05-24T02:29:57;102419.59;;;5.24;81.11
76637;BME280;65532;52.124;5.480;2023-05-24T02:32:23;102413.22;;;5.25;80.67
76637;BME280;65532;52.124;5.480;2023-05-24T02:34:50;102423.97;;;5.25;79.28
76637;BME280;65532;52.124;5.480;2023-05-24T02:37:16;102414.91;;;5.26;78.56
76637;BME280;65532;52.124;5.480;2023-05-24T02:39:42;102413.75;;;5.28;77.87
76637;BME280;65532;52.124;5.480;2023-05-24T02:42:09;102421.31;;;5.33;77.12
76637;BME280;65532;52.124;5.480;2023-05-24T02:44:36;102426.69;;;5.33;76.83
76637;BME280;65532;52.124;5.480;2023-05-24T02:47:03;102421.16;;;5.34;75.95
76637;BME280;65532;52.124;5.480;2023-05-24T02:49:30;102419.47;;;5.33;75.10
76637;BME280;65532;52.124;5.480;2023-05-24T02:51:56;102423.69;;;5.36;74.30
76637;BME280;65532;52.124;5.480;2023-05-24T02:54:23;102427.38;;;5.35;74.08
76637;BME280;65532;52.124;5.480;2023-05-24T02:56:50;102430.06;;;5.35;73.45
76637;BME280;65532;52.124;5.480;2023-05-24T02:59:17;102436.59;;;5.32;73.56
76637;BME280;65532;52.124;5.480;2023-05-24T03:01:43;102426.16;;;5.29;73.43
76637;BME280;65532;52.124;5.480;2023-05-24T03:04:10;102428.69;;;5.31;73.15
76637;BME280;65532;52.124;5.480;2023-05-24T03:06:37;102432.91;;;5.33;73.10
76637;BME280;65532;52.124;5.480;2023-05-24T03:09:03;102437.13;;;5.36;73.19
76637;BME280;65532;52.124;5.480;2023-05-24T03:11:30;102431.75;;;5.36;73.18
76637;BME280;65532;52.124;5.480;2023-05-24T03:13:57;102422.16;;;5.33;73.25
76637;BME280;65532;52.124;5.480;2023-05-24T03:16:23;102418.81;;;5.31;72.96
76637;BME280;65532;52.124;5.480;2023-05-24T03:18:50;102427.84;;;5.30;73.13
76637;BME280;65532;52.124;5.480;2023-05-24T03:21:17;102419.97;;;5.29;72.93
76637;BME280;65532;52.124;5.480;2023-05-24T03:23:46;102415.59;;;5.28;72.97
76637;BME280;65532;52.124;5.480;2023-05-24T03:26:12;102409.88;;;5.23;72.16
76637;BME280;65532;52.124;5.480;2023-05-24T03:28:39;102409.03;;;5.22;71.43
76637;BME280;65532;52.124;5.480;2023-05-24T03:31:08;102402.81;;;5.22;70.26
76637;BME280;65532;52.124;5.480;2023-05-24T03:33:35;102402.50;;;5.25;69.04
76637;BME280;65532;52.124;5.480;2023-05-24T03:36:02;102400.47;;;5.27;67.87
76637;BME280;65532;52.124;5.480;2023-05-24T03:38:29;102402.16;;;5.28;66.55
76637;BME280;65532;52.124;5.480;2023-05-24T03:40:57;102407.22;;;5.31;65.89
76637;BME280;65532;52.124;5.480;2023-05-24T03:43:23;102404.38;;;5.32;66.25
76637;BME280;65532;52.124;5.480;2023-05-24T03:45:55;102410.25;;;5.36;66.13
76637;BME280;65532;52.124;5.480;2023-05-24T03:48:21;102410.81;;;5.39;65.80
76637;BME280;65532;52.124;5.480;2023-05-24T03:50:49;102411.66;;;5.40;65.84
76637;BME280;65532;52.124;5.480;2023-05-24T03:53:16;102407.97;;;5.41;66.83
76637;BME280;65532;52.124;5.480;2023-05-24T03:55:43;102412.69;;;5.47;66.46
76637;BME280;65532;52.124;5.480;2023-05-24T03:58:10;102408.06;;;5.57;67.50
76637;BME280;65532;52.124;5.480;2023-05-24T04:00:38;102410.09;;;5.63;68.40
76637;BME280;65532;52.124;5.480;2023-05-24T04:03:05;102407.09;;;5.66;69.56
76637;BME280;65532;52.124;5.480;2023-05-24T04:05:34;102399.88;;;5.67;69.97
76637;BME280;65532;52.124;5.480;2023-05-24T04:08:00;102406.63;;;5.71;69.65
76637;BME280;65532;52.124;5.480;2023-05-24T04:10:28;102406.13;;;5.76;69.27
76637;BME280;65532;52.124;5.480;2023-05-24T04:12:54;102401.78;;;5.83;68.48
76637;BME280;65532;52.124;5.480;2023-05-24T04:15:22;102407.16;;;5.83;68.60
76637;BME280;65532;52.124;5.480;2023-05-24T04:17:49;102395.28;;;5.85;68.38
76637;BME280;65532;52.124;5.480;2023-05-24T04:20:21;102407.38;;;5.89;67.61
76637;BME280;65532;52.124;5.480;2023-05-24T04:22:50;102404.06;;;5.95;66.60
76637;BME280;65532;52.124;5.480;2023-05-24T04:25:17;102407.47;;;6.06;65.74
76637;BME280;65532;52.124;5.480;2023-05-24T04:27:44;102403.09;;;6.13;64.97
76637;BME280;65532;52.124;5.480;2023-05-24T04:30:14;102403.31;;;6.19;65.00
76637;BME280;65532;52.124;5.480;2023-05-24T04:32:43;102403.81;;;6.23;65.11
76637;BME280;65532;52.124;5.480;2023-05-24T04:35:11;102408.88;;;6.26;64.64
76637;BME280;65532;52.124;5.480;2023-05-24T04:37:37;102398.94;;;6.26;65.08
76637;BME280;65532;52.124;5.480;2023-05-24T04:40:06;102404.00;;;6.29;65.30
76637;BME280;65532;52.124;5.480;2023-05-24T04:42:34;102407.41;;;6.40;64.23
76637;BME280;65532;52.124;5.480;2023-05-24T04:45:01;102408.25;;;6.48;64.10
76637;BME280;65532;52.124;5.480;2023-05-24T04:47:27;102408.94;;;6.58;62.44
76637;BME280;65532;52.124;5.480;2023-05-24T04:49:54;102413.84;;;6.71;60.56
76637;BME280;65532;52.124;5.480;2023-05-24T04:52:20;102416.03;;;6.84;58.21
76637;BME280;65532;52.124;5.480;2023-05-24T04:54:47;102412.84;;;6.97;57.23
76637;BME280;65532;52.124;5.480;2023-05-24T04:57:14;102409.78;;;7.08;56.31
76637;BME280;65532;52.124;5.480;2023-05-24T04:59:41;102417.53;;;7.19;56.54
76637;BME280;65532;52.124;5.480;2023-05-24T05:02:07;102413.31;;;7.33;57.27
76637;BME280;65532;52.124;5.480;2023-05-24T05:04:34;102419.19;;;7.44;58.08
76637;BME280;65532;52.124;5.480;2023-05-24T05:07:02;102417.66;;;7.58;59.45
76637;BME280;65532;52.124;5.480;2023-05-24T05:09:29;102420.44;;;7.73;60.37
76637;BME280;65532;52.124;5.480;2023-05-24T05:11:55;102417.38;;;7.92;62.17
76637;BME280;65532;52.124;5.480;2023-05-24T05:14:22;102414.81;;;8.38;60.66
76637;BME280;65532;52.124;5.480;2023-05-24T05:16:48;102408.47;;;9.81;57.46
76637;BME280;65532;52.124;5.480;2023-05-24T05:19:15;102413.28;;;12.13;83.22
76637;BME280;65532;52.124;5.480;2023-05-24T05:21:42;102402.03;;;14.01;90.79
76637;BME280;65532;52.124;5.480;2023-05-24T05:24:08;102403.66;;;15.16;85.75
76637;BME280;65532;52.124;5.480;2023-05-24T05:26:35;102411.59;;;16.04;80.14
76637;BME280;65532;52.124;5.480;2023-05-24T05:29:01;102404.88;;;16.67;74.50
76637;BME280;65532;52.124;5.480;2023-05-24T05:31:28;102413.78;;;17.16;71.44
76637;BME280;65532;52.124;5.480;2023-05-24T05:33:55;102421.94;;;17.69;68.65
76637;BME280;65532;52.124;5.480;2023-05-24T05:36:21;102420.34;;;17.85;65.15
76637;BME280;65532;52.124;5.480;2023-05-24T05:38:48;102421.84;;;18.16;63.83
76637;BME280;65532;52.124;5.480;2023-05-24T05:41:14;102424.94;;;18.48;62.08
76637;BME280;65532;52.124;5.480;2023-05-24T05:43:41;102415.22;;;18.85;60.54
76637;BME280;65532;52.124;5.480;2023-05-24T05:46:07;102425.69;;;18.89;59.41
76637;BME280;65532;52.124;5.480;2023-05-24T05:48:36;102422.63;;;19.02;58.39
76637;BME280;65532;52.124;5.480;2023-05-24T05:51:02;102426.16;;;19.14;57.45
76637;BME280;65532;52.124;5.480;2023-05-24T05:53:29;102425.81;;;19.27;56.62
76637;BME280;65532;52.124;5.480;2023-05-24T05:55:55;102420.16;;;19.17;56.40
76637;BME280;65532;52.124;5.480;2023-05-24T05:58:22;102418.97;;;19.30;55.65
76637;BME280;65532;52.124;5.480;2023-05-24T06:00:48;102421.97;;;19.62;55.29
76637;BME280;65532;52.124;5.480;2023-05-24T06:03:15;102425.66;;;19.89;54.22
76637;BME280;65532;52.124;5.480;2023-05-24T06:05:41;102427.59;;;19.72;53.11
76637;BME280;65532;52.124;5.480;2023-05-24T06:08:08;102427.41;;;19.57;54.01
76637;BME280;65532;52.124;5.480;2023-05-24T06:10:34;102415.81;;;19.21;53.83
76637;BME280;65532;52.124;5.480;2023-05-24T06:13:02;102419.97;;;19.24;54.78
76637;BME280;65532;52.124;5.480;2023-05-24T06:15:29;102430.78;;;19.64;53.86
76637;BME280;65532;52.124;5.480;2023-05-24T06:17:56;102425.66;;;19.89;53.19
76637;BME280;65532;52.124;5.480;2023-05-24T06:20:22;102428.97;;;19.91;52.54
76637;BME280;65532;52.124;5.480;2023-05-24T06:22:49;102428.78;;;19.76;52.29
76637;BME280;65532;52.124;5.480;2023-05-24T06:25:16;102432.13;;;19.44;52.71
76637;BME280;65532;52.124;5.480;2023-05-24T06:27:44;102420.06;;;19.12;53.36
76637;BME280;65532;52.124;5.480;2023-05-24T06:30:11;102427.97;;;19.59;53.29
76637;BME280;65532;52.124;5.480;2023-05-24T06:32:38;102436.59;;;19.51;52.66
76637;BME280;65532;52.124;5.480;2023-05-24T06:35:06;102434.78;;;19.73;53.27
76637;BME280;65532;52.124;5.480;2023-05-24T06:37:33;102430.19;;;20.00;53.02
76637;BME280;65532;52.124;5.480;2023-05-24T06:40:00;102434.78;;;19.39;51.93
76637;BME280;65532;52.124;5.480;2023-05-24T06:42:26;102436.22;;;19.42;53.48
76637;BME280;65532;52.124;5.480;2023-05-24T06:44:53;102439.97;;;19.91;51.48
76637;BME280;65532;52.124;5.480;2023-05-24T06:47:20;102441.16;;;18.49;52.60
76637;BME280;65532;52.124;5.480;2023-05-24T06:49:47;102443.13;;;17.74;54.49
76637;BME280;65532;52.124;5.480;2023-05-24T06:52:15;102445.09;;;17.31;56.52
76637;BME280;65532;52.124;5.480;2023-05-24T06:54:41;102437.53;;;17.69;56.50
76637;BME280;65532;52.124;5.480;2023-05-24T06:57:08;102437.38;;;17.63;56.40
76637;BME280;65532;52.124;5.480;2023-05-24T06:59:34;102445.94;;;16.79;56.56
76637;BME280;65532;52.124;5.480;2023-05-24T07:02:01;102454.81;;;16.44;60.13
76637;BME280;65532;52.124;5.480;2023-05-24T07:04:29;102444.03;;;17.21;59.25
76637;BME280;65532;52.124;5.480;2023-05-24T07:06:57;102447.75;;;17.38;58.40
76637;BME280;65532;52.124;5.480;2023-05-24T07:09:23;102464.03;;;16.13;59.53
76637;BME280;65532;52.124;5.480;2023-05-24T07:11:51;102458.38;;;15.71;60.99
76637;BME280;65532;52.124;5.480;2023-05-24T07:14:17;102458.44;;;15.40;62.53
76637;BME280;65532;52.124;5.480;2023-05-24T07:16:44;102458.84;;;15.18;63.50
76637;BME280;65532;52.124;5.480;2023-05-24T07:19:10;102454.34;;;15.31;64.23
76637;BME280;65532;52.124;5.480;2023-05-24T07:21:38;102457.34;;;15.22;64.27
76637;BME280;65532;52.124;5.480;2023-05-24T07:24:05;102458.84;;;14.55;65.28
76637;BME280;65532;52.124;5.480;2023-05-24T07:26:32;102452.56;;;14.55;66.25
76637;BME280;65532;52.124;5.480;2023-05-24T07:28:58;102442.75;;;14.41;66.06
76637;BME280;65532;52.124;5.480;2023-05-24T07:31:25;102449.47;;;14.38;66.95
76637;BME280;65532;52.124;5.480;2023-05-24T07:33:52;102449.25;;;14.78;67.03
76637;BME280;65532;52.124;5.480;2023-05-24T07:36:19;102451.28;;;14.89;65.90
76637;BME280;65532;52.124;5.480;2023-05-24T07:38:46;102454.56;;;14.97;64.92
76637;BME280;65532;52.124;5.480;2023-05-24T07:41:13;102459.56;;;15.32;65.71
76637;BME280;65532;52.124;5.480;2023-05-24T07:43:39;102464.81;;;15.34;65.67
76637;BME280;65532;52.124;5.480;2023-05-24T07:46:06;102453.91;;;15.34;65.35
76637;BME280;65532;52.124;5.480;2023-05-24T07:48:33;102452.88;;;15.53;65.41
76637;BME280;65532;52.124;5.480;2023-05-24T07:50:59;102456.09;;;15.43;64.27
76637;BME280;65532;52.124;5.480;2023-05-24T07:53:26;102456.66;;;15.52;64.47
76637;BME280;65532;52.124;5.480;2023-05-24T07:55:52;102449.84;;;15.86;64.69
76637;BME280;65532;52.124;5.480;2023-05-24T07:58:19;102457.50;;;16.14;63.17
76637;BME280;65532;52.124;5.480;2023-05-24T08:00:45;102451.88;;;16.09;62.80
76637;BME280;65532;52.124;5.480;2023-05-24T08:03:12;102458.50;;;16.01;62.10
76637;BME280;65532;52.124;5.480;2023-05-24T08:05:40;102464.94;;;15.88;61.96
76637;BME280;65532;52.124;5.480;2023-05-24T08:08:07;102452.78;;;15.66;62.08
76637;BME280;65532;52.124;5.480;2023-05-24T08:10:33;102461.59;;;15.68;61.72
76637;BME280;65532;52.124;5.480;2023-05-24T08:13:00;102451.88;;;15.72;60.76
76637;BME280;65532;52.124;5.480;2023-05-24T08:15:26;102451.13;;;16.20;61.01
76637;BME280;65532;52.124;5.480;2023-05-24T08:17:53;102447.56;;;16.20;60.20
76637;BME280;65532;52.124;5.480;2023-05-24T08:20:20;102455.44;;;15.48;58.71
76637;BME280;65532;52.124;5.480;2023-05-24T08:22:46;102452.50;;;15.00;61.66
76637;BME280;65532;52.124;5.480;2023-05-24T08:25:16;102450.69;;;14.42;62.76
76637;BME280;65532;52.124;5.480;2023-05-24T08:27:42;102459.19;;;14.21;63.58
76637;BME280;65532;52.124;5.480;2023-05-24T08:30:09;102453.78;;;14.59;63.99
76637;BME280;65532;52.124;5.480;2023-05-24T08:32:36;102451.00;;;14.65;63.48
76637;BME280;65532;52.124;5.480;2023-05-24T08:35:04;102440.03;;;14.79;64.66
76637;BME280;65532;52.124;5.480;2023-05-24T08:37:44;102444.38;;;15.18;65.65
76637;BME280;65532;52.124;5.480;2023-05-24T08:40:11;102444.00;;;15.57;61.02
76637;BME280;65532;52.124;5.480;2023-05-24T08:42:38;102437.19;;;15.23;63.00
76637;BME280;65532;52.124;5.480;2023-05-24T08:45:13;102439.63;;;15.07;62.20
76637;BME280;65532;52.124;5.480;2023-05-24T08:47:40;102445.47;;;15.60;63.00
76637;BME280;65532;52.124;5.480;2023-05-24T08:50:08;102450.63;;;16.11;61.17
76637;BME280;65532;52.124;5.480;2023-05-24T08:52:35;102448.22;;;16.33;61.60
76637;BME280;65532;52.124;5.480;2023-05-24T08:55:05;102438.44;;;16.56;60.59
76637;BME280;65532;52.124;5.480;2023-05-24T08:57:32;102444.69;;;16.63;59.90
76637;BME280;65532;52.124;5.480;2023-05-24T09:00:00;102439.00;;;17.18;59.48
76637;BME280;65532;52.124;5.480;2023-05-24T09:02:27;102439.66;;;17.78;56.81
76637;BME280;65532;52.124;5.480;2023-05-24T09:04:55;102437.47;;;17.10;54.68
76637;BME280;65532;52.124;5.480;2023-05-24T09:07:22;102451.38;;;16.48;54.99
76637;BME280;65532;52.124;5.480;2023-05-24T09:09:57;102448.69;;;15.94;57.34
76637;BME280;65532;52.124;5.480;2023-05-24T09:12:30;102442.38;;;15.93;57.33
76637;BME280;65532;52.124;5.480;2023-05-24T09:15:05;102445.34;;;16.28;56.28
76637;BME280;65532;52.124;5.480;2023-05-24T09:17:36;102454.00;;;16.43;57.17
76637;BME280;65532;52.124;5.480;2023-05-24T09:20:07;102450.31;;;16.68;57.65
76637;BME280;65532;52.124;5.480;2023-05-24T09:22:37;102459.09;;;16.70;56.94
76637;BME280;65532;52.124;5.480;2023-05-24T09:25:09;102456.56;;;16.38;57.96
76637;BME280;65532;52.124;5.480;2023-05-24T09:27:36;102465.66;;;15.59;57.82
76637;BME280;65532;52.124;5.480;2023-05-24T09:30:08;102471.50;;;15.38;58.32
76637;BME280;65532;52.124;5.480;2023-05-24T09:32:35;102469.09;;;15.48;58.61
76637;BME280;65532;52.124;5.480;2023-05-24T09:35:06;102456.72;;;15.20;59.75
76637;BME280;65532;52.124;5.480;2023-05-24T09:37:35;102454.78;;;15.27;58.08
76637;BME280;65532;52.124;5.480;2023-05-24T09:40:04;102455.09;;;15.38;61.13
76637;BME280;65532;52.124;5.480;2023-05-24T09:42:32;102446.28;;;15.11;59.82
76637;BME280;65532;52.124;5.480;2023-05-24T09:45:05;102451.84;;;14.66;61.33
76637;BME280;65532;52.124;5.480;2023-05-24T09:47:39;102459.19;;;14.97;59.53
76637;BME280;65532;52.124;5.480;2023-05-24T09:50:14;102456.81;;;14.76;61.37
76637;BME280;65532;52.124;5.480;2023-05-24T09:52:42;102454.72;;;14.78;59.86
76637;BME280;65532;52.124;5.480;2023-05-24T09:55:19;102454.84;;;14.51;60.72
76637;BME280;65532;52.124;5.480;2023-05-24T09:57:50;102459.78;;;14.23;60.86
76637;BME280;65532;52.124;5.480;2023-05-24T10:00:22;102456.75;;;14.51;61.64
76637;BME280;65532;52.124;5.480;2023-05-24T10:02:59;102461.38;;;14.82;62.33
76637;BME280;65532;52.124;5.480;2023-05-24T10:05:28;102456.53;;;14.90;61.89
76637;BME280;65532;52.124;5.480;2023-05-24T10:07:56;102455.53;;;14.85;61.89
76637;BME280;65532;52.124;5.480;2023-05-24T10:10:26;102462.03;;;15.15;61.11
76637;BME280;65532;52.124;5.480;2023-05-24T10:12:57;102455.28;;;15.18;60.57
76637;BME280;65532;52.124;5.480;2023-05-24T10:15:25;102468.50;;;14.83;60.95
76637;BME280;65532;52.124;5.480;2023-05-24T10:17:53;102454.03;;;14.89;61.32
76637;BME280;65532;52.124;5.480;2023-05-24T10:20:22;102460.78;;;15.11;59.91
76637;BME280;65532;52.124;5.480;2023-05-24T10:22:58;102462.06;;;15.09;60.74
76637;BME280;65532;52.124;5.480;2023-05-24T10:25:27;102451.91;;;14.91;60.74
76637;BME280;65532;52.124;5.480;2023-05-24T10:27:59;102457.88;;;15.06;61.11
76637;BME280;65532;52.124;5.480;2023-05-24T10:33:07;102457.22;;;15.36;62.90
76637;BME280;65532;52.124;5.480;2023-05-24T10:35:35;102458.28;;;15.60;59.31
76637;BME280;65532;52.124;5.480;2023-05-24T10:38:06;102454.50;;;15.36;59.50
76637;BME280;65532;52.124;5.480;2023-05-24T10:40:33;102450.88;;;15.42;60.38
76637;BME280;65532;52.124;5.480;2023-05-24T10:43:03;102456.13;;;15.68;59.83
76637;BME280;65532;52.124;5.480;2023-05-24T10:45:40;102453.31;;;15.50;58.71
76637;BME280;65532;52.124;5.480;2023-05-24T10:48:07;102451.22;;;15.95;59.14
76637;BME280;65532;52.124;5.480;2023-05-24T10:50:35;102444.59;;;15.84;56.34
76637;BME280;65532;52.124;5.480;2023-05-24T10:53:12;102446.41;;;15.91;57.44
76637;BME280;65532;52.124;5.480;2023-05-24T10:55:58;102449.94;;;15.98;58.66
76637;BME280;65532;52.124;5.480;2023-05-24T11:01:26;102446.81;;;15.94;56.87
76637;BME280;65532;52.124;5.480;2023-05-24T11:04:10;102450.75;;;15.80;56.50
76637;BME280;65532;52.124;5.480;2023-05-24T11:07:07;102456.88;;;15.25;56.37
76637;BME280;65532;52.124;5.480;2023-05-24T11:09:38;102452.81;;;15.10;56.84
76637;BME280;65532;52.124;5.480;2023-05-24T11:12:16;102453.91;;;15.34;58.14
76637;BME280;65532;52.124;5.480;2023-05-24T11:14:48;102450.09;;;15.35;57.50
76637;BME280;65532;52.124;5.480;2023-05-24T11:17:15;102451.69;;;15.42;57.03
76637;BME280;65532;52.124;5.480;2023-05-24T11:19:47;102445.91;;;15.57;57.92
76637;BME280;65532;52.124;5.480;2023-05-24T11:22:15;102448.53;;;15.70;56.92
76637;BME280;65532;52.124;5.480;2023-05-24T11:24:43;102456.28;;;15.48;57.87
76637;BME280;65532;52.124;5.480;2023-05-24T11:27:11;102451.94;;;15.41;58.28
76637;BME280;65532;52.124;5.480;2023-05-24T11:29:40;102450.16;;;15.28;57.38
76637;BME280;65532;52.124;5.480;2023-05-24T11:32:06;102451.94;;;15.41;58.68
76637;BME280;65532;52.124;5.480;2023-05-24T11:34:34;102449.03;;;15.61;57.43
76637;BME280;65532;52.124;5.480;2023-05-24T11:37:01;102456.81;;;15.57;57.89
76637;BME280;65532;52.124;5.480;2023-05-24T11:39:32;102448.09;;;16.10;57.50
76637;BME280;65532;52.124;5.480;2023-05-24T11:42:03;102442.63;;;16.28;58.24
76637;BME280;65532;52.124;5.480;2023-05-24T11:44:31;102447.75;;;16.36;57.69
76637;BME280;65532;52.124;5.480;2023-05-24T11:46:59;102445.00;;;16.73;55.01
76637;BME280;65532;52.124;5.480;2023-05-24T11:49:26;102451.69;;;16.59;54.61
76637;BME280;65532;52.124;5.480;2023-05-24T11:51:54;102450.75;;;16.65;55.42
76637;BME280;65532;52.124;5.480;2023-05-24T11:54:25;102448.72;;;16.90;56.10
76637;BME280;65532;52.124;5.480;2023-05-24T11:56:53;102441.13;;;16.92;55.98
76637;BME280;65532;52.124;5.480;2023-05-24T11:59:24;102448.75;;;16.72;54.98
76637;BME280;65532;52.124;5.480;2023-05-24T12:01:59;102449.16;;;16.27;56.16
76637;BME280;65532;52.124;5.480;2023-05-24T12:04:27;102442.00;;;16.56;56.87
76637;BME280;65532;52.124;5.480;2023-05-24T12:06:55;102430.78;;;16.94;55.83
76637;BME280;65532;52.124;5.480;2023-05-24T12:09:22;102432.00;;;17.10;55.08
76637;BME280;65532;52.124;5.480;2023-05-24T12:11:51;102429.88;;;17.24;54.89
76637;BME280;65532;52.124;5.480;2023-05-24T12:14:20;102442.50;;;16.83;54.27
76637;BME280;65532;52.124;5.480;2023-05-24T12:16:48;102438.25;;;16.39;56.72
76637;BME280;65532;52.124;5.480;2023-05-24T12:19:18;102436.72;;;16.13;57.06
76637;BME280;65532;52.124;5.480;2023-05-24T12:22:00;102433.38;;;16.41;57.64
76637;BME280;65532;52.124;5.480;2023-05-24T12:24:27;102439.44;;;16.31;56.35
76637;BME280;65532;52.124;5.480;2023-05-24T12:26:58;102437.22;;;16.22;56.22
76637;BME280;65532;52.124;5.480;2023-05-24T12:29:40;102441.41;;;16.06;56.17
76637;BME280;65532;52.124;5.480;2023-05-24T12:32:10;102433.38;;;16.11;56.43
76637;BME280;65532;52.124;5.480;2023-05-24T12:34:40;102440.19;;;16.02;56.84
76637;BME280;65532;52.124;5.480;2023-05-24T12:37:08;102447.56;;;16.01;57.98
76637;BME280;65532;52.124;5.480;2023-05-24T12:39:35;102445.66;;;15.65;58.70
76637;BME280;65532;52.124;5.480;2023-05-24T12:42:03;102440.94;;;16.09;59.13
76637;BME280;65532;52.124;5.480;2023-05-24T12:44:32;102433.97;;;16.31;58.66
76637;BME280;65532;52.124;5.480;2023-05-24T12:47:01;102428.56;;;16.55;57.60
76637;BME280;65532;52.124;5.480;2023-05-24T12:49:28;102427.69;;;16.91;58.14
76637;BME280;65532;52.124;5.480;2023-05-24T12:51:55;102432.22;;;17.09;58.08
76637;BME280;65532;52.124;5.480;2023-05-24T12:54:24;102429.50;;;17.09;56.07
76637;BME280;65532;52.124;5.480;2023-05-24T12:56:52;102431.38;;;16.66;57.44
76637;BME280;65532;52.124;5.480;2023-05-24T12:59:22;102440.59;;;16.54;56.20
76637;BME280;65532;52.124;5.480;2023-05-24T13:01:48;102437.84;;;16.54;56.56
76637;BME280;65532;52.124;5.480;2023-05-24T13:04:19;102442.16;;;16.80;56.27
76637;BME280;65532;52.124;5.480;2023-05-24T13:06:47;102444.88;;;16.31;55.57
76637;BME280;65532;52.124;5.480;2023-05-24T13:09:14;102437.88;;;16.35;56.57
76637;BME280;65532;52.124;5.480;2023-05-24T13:11:43;102449.28;;;16.81;56.11
76637;BME280;65532;52.124;5.480;2023-05-24T13:14:10;102446.94;;;16.66;55.01
76637;BME280;65532;52.124;5.480;2023-05-24T13:16:37;102431.91;;;16.87;56.39
76637;BME280;65532;52.124;5.480;2023-05-24T13:19:04;102443.09;;;16.85;55.31